Time;durP1;ratioP1;P1;durP2;ratioP2;P2;SDS_P1;SDS_P2;PMS_P1;PMS_P2;Temp;Humidity;BMP_temperature;BMP_pressure;BME280_temperature;BME280_humidity;BME280_pressure;Samples;Min_cycle;Max_cycle;Signal;HPM_P1;HPM_P2
2022/04/24 00:01:06;;;;;;;;;13.33;12.00;;;;;15.93;52.23;99478.63;5056939;28;45285;-42
2022/04/24 00:03:32;;;;;;;;;18.67;14.00;;;;;15.86;52.24;99458.25;5057126;28;45216;-41
2022/04/24 00:05:58;;;;;;;;;18.67;16.33;;;;;15.95;52.35;99476.56;5056757;28;45576;-41
2022/04/24 00:08:23;;;;;;;;;18.67;15.00;;;;;15.95;52.55;99473.88;5056687;28;45507;-42
2022/04/24 00:10:48;;;;;;;;;16.33;11.00;;;;;15.94;52.66;99468.72;5057515;28;45506;-42
2022/04/24 00:13:14;;;;;;;;;20.67;18.00;;;;;15.94;52.47;99476.78;5056196;28;45550;-41
2022/04/24 00:15:39;;;;;;;;;18.33;14.00;;;;;15.92;52.33;99473.47;5057360;28;45427;-42
2022/04/24 00:18:05;;;;;;;;;21.33;17.33;;;;;15.88;52.63;99475.75;5056246;28;45517;-42
2022/04/24 00:20:30;;;;;;;;;21.67;14.67;;;;;15.89;52.75;99471.22;5056727;28;45399;-41
2022/04/24 00:22:56;;;;;;;;;22.67;18.33;;;;;15.85;52.82;99472.69;5056157;28;46295;-41
2022/04/24 00:25:21;;;;;;;;;22.33;19.67;;;;;15.84;52.83;99471.84;5056409;28;45400;-41
2022/04/24 00:27:47;;;;;;;;;22.00;19.00;;;;;15.80;53.07;99472.47;5056332;28;45781;-42
2022/04/24 00:30:13;;;;;;;;;19.00;18.33;;;;;15.74;53.13;99471.47;5054425;28;45432;-41
2022/04/24 00:32:38;;;;;;;;;20.67;18.00;;;;;15.69;53.41;99474.78;5056281;28;45491;-41
2022/04/24 00:35:04;;;;;;;;;18.00;18.00;;;;;15.64;53.54;99469.25;5056680;28;45423;-41
2022/04/24 00:37:29;;;;;;;;;21.67;19.67;;;;;15.60;54.12;99468.00;5055630;28;45504;-41
2022/04/24 00:39:55;;;;;;;;;22.33;18.33;;;;;15.55;53.94;99465.13;5056490;28;45435;-40
2022/04/24 00:42:21;;;;;;;;;19.00;18.33;;;;;15.53;54.38;99461.81;5055929;28;46117;-42
2022/04/24 00:44:46;;;;;;;;;18.00;18.00;;;;;15.51;54.24;99463.06;5056140;28;45471;-41
2022/04/24 00:47:16;;;;;;;;;16.33;16.33;;;;;15.45;53.86;99462.84;5057648;28;45304;-41
2022/04/24 00:49:43;;;;;;;;;20.00;17.00;;;;;15.39;54.38;99457.53;5057544;28;45461;-41
2022/04/24 00:52:10;;;;;;;;;27.67;19.67;;;;;15.38;54.64;99469.25;5057083;28;45556;-41
2022/04/24 00:54:37;;;;;;;;;23.67;19.67;;;;;15.34;54.07;99468.06;5056826;28;46671;-41
2022/04/24 00:57:05;;;;;;;;;20.33;18.00;;;;;15.31;54.84;99477.31;5057286;28;45399;-42
2022/04/24 00:59:30;;;;;;;;;21.33;18.00;;;;;15.20;54.82;99465.38;5057221;28;45365;-41
2022/04/24 01:01:55;;;;;;;;;22.00;18.00;;;;;15.24;55.22;99481.84;5056809;28;45407;-41
2022/04/24 01:04:21;;;;;;;;;22.67;20.67;;;;;15.19;55.21;99474.44;5056924;28;45419;-41
2022/04/24 01:06:46;;;;;;;;;31.67;21.33;;;;;15.17;55.23;99478.38;5057442;28;45536;-41
2022/04/24 01:09:19;;;;;;;;;22.00;20.33;;;;;15.03;55.04;99466.81;5056409;28;45471;-41
2022/04/24 01:11:47;;;;;;;;;16.67;15.00;;;;;15.07;55.57;99480.63;5056995;28;45476;-41
2022/04/24 01:14:16;;;;;;;;;21.67;17.67;;;;;15.01;55.38;99484.97;5056675;28;45436;-41
2022/04/24 01:16:42;;;;;;;;;20.67;15.33;;;;;14.98;54.61;99480.00;5056901;28;45236;-42
2022/04/24 01:19:08;;;;;;;;;19.33;16.00;;;;;14.95;55.12;99480.41;5057181;28;45328;-41
2022/04/24 01:21:34;;;;;;;;;23.00;19.67;;;;;14.90;54.97;99483.72;5056224;28;45386;-42
2022/04/24 01:24:03;;;;;;;;;23.00;19.33;;;;;14.88;54.67;99484.97;5056341;28;45400;-42
2022/04/24 01:26:28;;;;;;;;;16.00;16.00;;;;;14.85;55.39;99490.72;5057143;28;45460;-41
2022/04/24 01:28:54;;;;;;;;;23.33;18.33;;;;;14.82;55.36;99496.47;5056974;28;45306;-41
2022/04/24 01:31:19;;;;;;;;;24.67;18.67;;;;;14.77;55.26;99491.75;5056371;28;46131;-42
2022/04/24 01:33:45;;;;;;;;;24.00;20.67;;;;;14.76;54.90;99500.81;5056632;28;45332;-42
2022/04/24 01:36:11;;;;;;;;;16.67;15.33;;;;;14.70;54.95;99497.06;5057179;28;45186;-42
2022/04/24 01:38:36;;;;;;;;;23.00;17.67;;;;;14.69;55.25;99499.97;5056796;28;45392;-42
2022/04/24 01:41:01;;;;;;;;;24.00;16.67;;;;;14.67;55.15;99508.22;5056444;28;46163;-42
2022/04/24 01:43:28;;;;;;;;;21.67;19.33;;;;;14.65;55.11;99502.22;5056729;28;45408;-43
2022/04/24 01:45:53;;;;;;;;;17.00;17.00;;;;;14.61;55.51;99509.00;5056656;28;45326;-42
2022/04/24 01:48:20;;;;;;;;;25.33;20.00;;;;;14.60;55.57;99509.22;5056854;28;45201;-41
2022/04/24 01:50:45;;;;;;;;;15.33;12.33;;;;;14.58;54.75;99509.44;5056542;28;47412;-42
2022/04/24 01:53:11;;;;;;;;;22.00;18.67;;;;;14.56;55.51;99514.16;5056180;28;45311;-41
2022/04/24 01:55:36;;;;;;;;;20.00;17.33;;;;;14.53;54.86;99511.88;5057552;28;45439;-41
2022/04/24 01:58:02;;;;;;;;;17.00;16.00;;;;;14.47;55.06;99510.81;5060395;28;45396;-42
2022/04/24 02:00:28;;;;;;;;;22.00;17.00;;;;;14.47;55.23;99513.47;5059785;28;45925;-42
2022/04/24 02:02:54;;;;;;;;;19.00;14.67;;;;;14.44;55.19;99513.88;5059968;28;45346;-42
2022/04/24 02:05:19;;;;;;;;;18.00;15.00;;;;;14.43;55.27;99522.13;5059958;28;45403;-42
2022/04/24 02:07:45;;;;;;;;;19.67;17.33;;;;;14.40;55.67;99511.81;5060270;28;45543;-42
2022/04/24 02:10:11;;;;;;;;;17.00;14.33;;;;;14.37;55.55;99515.72;5060060;28;45475;-43
2022/04/24 02:12:40;;;;;;;;;22.33;16.67;;;;;14.35;55.63;99511.59;5059658;28;45312;-42
2022/04/24 02:15:08;;;;;;;;;23.00;16.00;;;;;14.35;55.92;99516.94;5059867;28;45404;-43
2022/04/24 02:17:34;;;;;;;;;16.00;16.00;;;;;14.33;55.39;99525.19;5059955;28;45637;-40
2022/04/24 02:20:00;;;;;;;;;20.00;13.33;;;;;14.33;55.28;99524.38;5059511;28;45376;-41
2022/04/24 02:22:33;;;;;;;;;15.67;14.00;;;;;14.28;55.31;99519.59;5059599;28;45197;-41
2022/04/24 02:24:59;;;;;;;;;16.67;14.00;;;;;14.31;55.33;99529.06;5059206;28;45338;-40
2022/04/24 02:27:25;;;;;;;;;17.33;12.67;;;;;14.30;55.31;99528.25;5059641;28;45413;-42
2022/04/24 02:29:50;;;;;;;;;20.00;14.33;;;;;14.29;55.65;99529.28;5059403;28;45882;-41
2022/04/24 02:32:16;;;;;;;;;16.33;14.67;;;;;14.29;55.18;99536.50;5059425;28;45262;-41
2022/04/24 02:34:41;;;;;;;;;13.67;11.00;;;;;14.28;55.25;99530.28;5059505;28;45398;-40
2022/04/24 02:37:07;;;;;;;;;18.00;15.00;;;;;14.27;54.54;99527.81;5059512;28;45519;-42
2022/04/24 02:39:32;;;;;;;;;21.00;16.33;;;;;14.26;54.77;99531.53;5058998;28;46645;-42
2022/04/24 02:41:58;;;;;;;;;17.00;15.33;;;;;14.22;55.30;99531.91;5059445;28;45229;-46
2022/04/24 02:44:23;;;;;;;;;10.67;10.33;;;;;14.21;55.31;99532.97;5041551;28;45187;-41
2022/04/24 02:46:48;;;;;;;;;19.67;15.67;;;;;14.22;54.91;99542.63;5059514;28;45203;-41
2022/04/24 02:49:14;;;;;;;;;20.33;17.00;;;;;14.22;54.99;99536.44;5059393;28;46078;-41
2022/04/24 02:51:39;;;;;;;;;21.33;16.67;;;;;14.21;54.94;99538.31;5059214;28;45426;-42
2022/04/24 02:54:04;;;;;;;;;16.67;13.67;;;;;14.20;55.23;99542.00;5059229;28;45397;-40
2022/04/24 02:56:30;;;;;;;;;18.33;14.33;;;;;14.17;55.23;99541.56;5059074;28;46095;-41
2022/04/24 02:58:56;;;;;;;;;19.67;15.33;;;;;14.17;55.01;99546.94;5058901;28;46073;-41
2022/04/24 03:01:22;;;;;;;;;20.33;15.00;;;;;14.16;54.72;99547.97;5059097;28;45334;-40
2022/04/24 03:03:49;;;;;;;;;16.00;14.67;;;;;14.15;54.95;99547.09;5059021;28;45396;-41
2022/04/24 03:06:18;;;;;;;;;22.33;18.00;;;;;14.15;55.08;99552.47;5058874;28;45530;-41
2022/04/24 03:08:43;;;;;;;;;16.67;15.00;;;;;14.13;54.57;99546.50;5058723;28;46418;-42
2022/04/24 03:11:08;;;;;;;;;21.33;15.00;;;;;14.09;54.86;99539.91;5058728;28;45311;-42
2022/04/24 03:13:34;;;;;;;;;23.33;17.67;;;;;14.11;54.82;99553.06;5059072;28;45349;-41
2022/04/24 03:15:59;;;;;;;;;19.67;15.33;;;;;14.10;54.99;99549.56;5058928;28;45205;-42
2022/04/24 03:18:25;;;;;;;;;15.67;15.67;;;;;14.02;54.82;99543.56;5058669;28;46073;-42
2022/04/24 03:20:50;;;;;;;;;17.33;13.67;;;;;14.07;54.87;99555.28;5058978;28;45321;-42
2022/04/24 03:23:15;;;;;;;;;16.00;14.67;;;;;14.02;54.71;99547.06;5059027;28;45392;-42
2022/04/24 03:25:41;;;;;;;;;22.00;17.33;;;;;14.05;54.98;99557.34;5058876;28;45430;-41
2022/04/24 03:28:08;;;;;;;;;24.00;17.33;;;;;14.06;54.94;99563.53;5058532;28;45510;-41
2022/04/24 03:30:35;;;;;;;;;19.33;17.33;;;;;14.06;55.16;99563.53;5058576;28;45511;-41
2022/04/24 03:33:00;;;;;;;;;16.67;15.33;;;;;14.04;55.42;99563.75;5058666;28;45767;-42
2022/04/24 03:35:26;;;;;;;;;16.00;14.00;;;;;14.04;54.94;99566.41;5058823;28;45486;-41
2022/04/24 03:37:51;;;;;;;;;23.00;17.67;;;;;13.93;55.27;99546.38;5058521;28;46462;-42
2022/04/24 03:40:17;;;;;;;;;19.50;16.00;;;;;14.03;55.27;99569.25;5058225;28;45442;-42
2022/04/24 03:42:42;;;;;;;;;18.33;14.00;;;;;14.02;55.02;99570.28;5058864;28;45264;-42
2022/04/24 03:45:11;;;;;;;;;17.67;15.67;;;;;14.00;55.00;99575.84;5058690;28;45360;-41
2022/04/24 03:47:36;;;;;;;;;18.00;17.00;;;;;13.98;55.40;99578.69;5058454;28;46986;-42
2022/04/24 03:50:03;;;;;;;;;16.00;11.33;;;;;13.99;55.47;99574.22;5058196;28;45457;-42
2022/04/24 03:52:29;;;;;;;;;22.00;16.67;;;;;13.96;55.72;99574.59;5058381;28;45357;-41
2022/04/24 03:54:54;;;;;;;;;16.00;14.00;;;;;13.94;55.71;99574.78;5058602;28;45506;-41
2022/04/24 03:57:20;;;;;;;;;15.00;15.00;;;;;13.94;55.66;99573.94;5057812;28;46059;-41
2022/04/24 03:59:46;;;;;;;;;21.33;18.67;;;;;13.93;55.52;99578.47;5057942;28;45370;-41
2022/04/24 04:02:11;;;;;;;;;22.33;19.00;;;;;13.92;55.73;99576.00;5058297;28;45328;-41
2022/04/24 04:04:37;;;;;;;;;14.67;14.67;;;;;13.90;55.42;99575.38;5057880;28;45376;-42
2022/04/24 04:07:03;;;;;;;;;18.00;17.33;;;;;13.88;55.83;99572.06;5057788;28;46500;-42
2022/04/24 04:09:29;;;;;;;;;18.67;17.67;;;;;13.82;56.15;99575.50;5058224;28;45209;-42
2022/04/24 04:11:55;;;;;;;;;22.00;16.33;;;;;13.88;55.43;99585.44;5057833;28;45705;-43
2022/04/24 04:14:21;;;;;;;;;23.00;16.00;;;;;13.87;55.96;99587.28;5057914;28;45471;-42
2022/04/24 04:16:48;;;;;;;;;15.33;14.33;;;;;13.72;56.11;99566.00;5057719;28;46487;-42
2022/04/24 04:19:13;;;;;;;;;15.00;11.33;;;;;13.81;55.94;99585.38;5056927;28;45340;-42
2022/04/24 04:21:39;;;;;;;;;22.67;16.00;;;;;13.85;55.91;99600.00;5058044;28;45453;-42
2022/04/24 04:24:05;;;;;;;;;25.67;18.67;;;;;13.84;55.68;99595.69;5057982;28;45410;-42
2022/04/24 04:26:30;;;;;;;;;9.33;9.33;;;;;13.83;56.03;99595.91;5057502;28;45376;-42
2022/04/24 04:28:55;;;;;;;;;15.67;15.67;;;;;13.81;55.74;99597.94;5057885;28;45421;-42
2022/04/24 04:31:21;;;;;;;;;22.33;18.00;;;;;13.81;56.08;99604.09;5056583;28;45475;-41
2022/04/24 04:33:46;;;;;;;;;19.33;16.00;;;;;13.79;56.18;99602.66;5057962;28;45489;-42
2022/04/24 04:36:11;;;;;;;;;19.67;19.00;;;;;13.79;55.92;99613.34;5057657;28;45431;-45
2022/04/24 04:38:37;;;;;;;;;23.33;20.00;;;;;13.75;56.28;99604.06;5057571;28;45443;-41
2022/04/24 04:41:03;;;;;;;;;24.00;16.67;;;;;13.67;56.14;99594.34;5057794;28;45249;-42
2022/04/24 04:43:29;;;;;;;;;18.33;17.33;;;;;13.74;56.60;99603.25;5057932;28;45359;-42
2022/04/24 04:45:54;;;;;;;;;24.33;21.33;;;;;13.62;56.80;99591.44;5057273;28;47051;-42
2022/04/24 04:48:21;;;;;;;;;19.00;16.33;;;;;13.71;56.41;99607.13;5057478;28;45614;-42
2022/04/24 04:50:47;;;;;;;;;20.67;19.00;;;;;13.61;56.12;99593.28;5057547;28;45331;-42
2022/04/24 04:53:12;;;;;;;;;18.67;17.33;;;;;13.72;56.42;99616.78;5057558;28;45451;-42
2022/04/24 04:55:38;;;;;;;;;23.00;19.00;;;;;13.67;56.74;99616.56;5057210;28;45866;-42
2022/04/24 04:58:03;;;;;;;;;17.33;16.00;;;;;13.75;56.58;99620.09;5056836;28;45446;-42
2022/04/24 05:00:29;;;;;;;;;20.00;19.33;;;;;13.71;56.71;99623.16;5057437;28;46073;-42
2022/04/24 05:02:55;;;;;;;;;21.67;18.00;;;;;13.76;56.68;99625.25;5057551;28;45423;-42
2022/04/24 05:05:20;;;;;;;;;28.33;19.00;;;;;13.76;56.61;99630.59;5056971;28;46128;-42
2022/04/24 05:07:47;;;;;;;;;25.33;22.33;;;;;13.77;56.43;99634.91;5056557;28;45224;-43
2022/04/24 05:10:12;;;;;;;;;24.33;23.00;;;;;13.64;56.50;99621.44;5057109;28;45350;-42
2022/04/24 05:12:38;;;;;;;;;22.33;18.00;;;;;13.78;56.22;99636.59;5057164;28;45285;-42
2022/04/24 05:15:06;;;;;;;;;29.33;22.33;;;;;13.83;56.09;99638.66;5057015;28;46198;-42
2022/04/24 05:17:32;;;;;;;;;29.00;23.00;;;;;13.73;55.75;99631.78;5056941;28;45461;-43
2022/04/24 05:19:57;;;;;;;;;32.00;21.33;;;;;13.86;55.93;99648.94;5057025;28;45415;-42
2022/04/24 05:22:23;;;;;;;;;19.67;17.33;;;;;13.89;56.31;99660.09;5057026;28;45455;-42
2022/04/24 05:24:49;;;;;;;;;23.00;22.33;;;;;13.85;55.81;99648.13;5057128;28;45401;-43
2022/04/24 05:27:15;;;;;;;;;31.00;20.33;;;;;13.85;55.92;99645.47;5056665;28;45361;-42
2022/04/24 05:29:40;;;;;;;;;21.67;17.67;;;;;13.95;55.60;99655.81;5056665;28;45225;-42
2022/04/24 05:32:06;;;;;;;;;22.00;20.67;;;;;13.93;55.54;99656.00;5056997;28;45476;-41
2022/04/24 05:34:32;;;;;;;;;19.67;17.00;;;;;13.98;55.56;99666.13;5056682;28;46935;-42
2022/04/24 05:36:57;;;;;;;;;22.67;18.00;;;;;13.98;55.53;99664.25;5056664;28;45368;-42
2022/04/24 05:39:23;;;;;;;;;18.00;16.00;;;;;14.01;55.47;99668.41;5056708;28;45374;-41
2022/04/24 05:41:48;;;;;;;;;22.00;19.00;;;;;14.06;55.76;99679.34;5056775;28;45316;-43
2022/04/24 05:44:13;;;;;;;;;19.33;19.33;;;;;14.09;55.38;99670.09;5056799;28;45379;-42
2022/04/24 05:46:39;;;;;;;;;22.00;18.67;;;;;14.13;55.29;99677.53;5056834;28;45242;-42
2022/04/24 05:49:04;;;;;;;;;21.00;18.00;;;;;14.16;55.47;99674.47;5057072;28;45233;-42
2022/04/24 05:51:29;;;;;;;;;21.33;18.00;;;;;14.18;55.22;99661.72;5056827;28;45194;-41
2022/04/24 05:53:55;;;;;;;;;22.00;17.67;;;;;14.21;54.74;99669.38;5056307;28;45435;-41
2022/04/24 05:56:21;;;;;;;;;24.00;16.67;;;;;14.23;54.79;99675.31;5056601;28;45440;-41
2022/04/24 05:58:46;;;;;;;;;20.00;19.33;;;;;14.16;54.70;99655.75;5056215;28;45462;-42
2022/04/24 06:01:12;;;;;;;;;27.67;23.67;;;;;14.30;54.52;99682.59;5056789;28;45345;-41
2022/04/24 06:03:40;;;;;;;;;17.67;16.67;;;;;14.35;54.55;99685.50;5056225;28;46305;-41
2022/04/24 06:06:06;;;;;;;;;19.67;17.67;;;;;14.40;54.30;99683.03;5056379;28;45393;-41
2022/04/24 06:08:31;;;;;;;;;27.00;23.33;;;;;14.44;54.39;99686.97;5056518;28;45388;-40
2022/04/24 06:10:57;;;;;;;;;22.33;18.00;;;;;14.48;54.38;99689.09;5056355;28;45297;-42
2022/04/24 06:13:22;;;;;;;;;27.33;27.33;;;;;14.54;54.18;99689.31;5056013;28;45424;-41
2022/04/24 06:15:48;;;;;;;;;25.33;20.33;;;;;14.59;54.40;99686.91;5056128;28;45359;-40
2022/04/24 06:18:13;;;;;;;;;23.33;18.67;;;;;14.64;53.91;99697.81;5055989;28;45514;-42
2022/04/24 06:20:39;;;;;;;;;23.33;18.67;;;;;14.67;53.83;99679.53;5056673;28;45285;-41
2022/04/24 06:23:04;;;;;;;;;29.00;22.00;;;;;14.67;53.84;99665.31;5056217;28;45352;-42
2022/04/24 06:25:34;;;;;;;;;28.33;23.33;;;;;14.83;53.48;99693.56;5056190;28;46138;-42
2022/04/24 06:28:01;;;;;;;;;23.67;20.67;;;;;14.89;53.31;99698.13;5056111;28;45472;-41
2022/04/24 06:30:30;;;;;;;;;25.67;23.00;;;;;14.95;53.42;99700.81;5056128;28;45438;-42
2022/04/24 06:33:01;;;;;;;;;29.67;22.67;;;;;14.68;53.33;99654.41;5055939;28;45423;-41
2022/04/24 06:35:26;;;;;;;;;30.00;23.00;;;;;15.08;53.00;99704.56;5055863;28;45251;-42
2022/04/24 06:37:53;;;;;;;;;27.00;22.67;;;;;15.12;52.79;99713.88;5055900;28;45486;-43
2022/04/24 06:40:19;;;;;;;;;33.67;25.00;;;;;15.17;52.56;99717.63;5056398;28;45228;-42
2022/04/24 06:42:56;;;;;;;;;26.67;21.67;;;;;15.22;52.45;99711.66;5057463;28;46298;-42
2022/04/24 06:45:27;;;;;;;;;28.00;24.00;;;;;15.30;52.26;99713.31;5059292;28;45356;-42
2022/04/24 06:47:54;;;;;;;;;27.00;26.00;;;;;15.37;52.11;99709.59;5059395;28;45405;-41
2022/04/24 06:50:22;;;;;;;;;27.33;24.00;;;;;15.44;51.86;99715.81;5059573;28;45329;-42
2022/04/24 06:53:04;;;;;;;;;32.00;25.00;;;;;15.52;51.77;99712.13;5059032;28;46160;-42
2022/04/24 06:55:31;;;;;;;;;31.33;28.67;;;;;15.64;51.52;99715.03;5059096;28;45206;-42
2022/04/24 06:57:58;;;;;;;;;34.33;26.67;;;;;15.74;51.25;99712.78;5058863;28;45474;-43
2022/04/24 07:00:25;;;;;;;;;36.33;25.33;;;;;15.91;51.04;99713.19;5058965;28;45499;-42
2022/04/24 07:02:51;;;;;;;;;32.00;25.00;;;;;16.45;50.12;99714.78;5058817;28;46632;-42
2022/04/24 07:05:20;;;;;;;;;35.67;27.67;;;;;17.32;48.19;99718.84;5058886;28;45323;-41
2022/04/24 07:07:45;;;;;;;;;29.67;28.33;;;;;18.22;46.00;99709.69;5058947;28;45335;-42
2022/04/24 07:10:11;;;;;;;;;30.00;26.33;;;;;19.03;44.59;99706.72;5059236;28;45382;-42
2022/04/24 07:12:50;;;;;;;;;41.33;28.67;;;;;19.69;43.25;99705.81;5057399;28;48115;-44
2022/04/24 07:15:17;;;;;;;;;28.33;26.00;;;;;20.33;42.22;99716.78;5058538;28;45414;-43
2022/04/24 07:17:43;;;;;;;;;37.33;31.33;;;;;20.68;41.38;99710.53;5058949;28;45453;-42
2022/04/24 07:20:12;;;;;;;;;36.00;31.00;;;;;21.11;40.80;99718.19;5059030;28;45406;-41
2022/04/24 07:22:52;;;;;;;;;43.00;27.33;;;;;21.43;39.54;99721.25;5058133;28;45460;-42
2022/04/24 07:25:22;;;;;;;;;35.67;27.67;;;;;21.60;39.01;99726.69;5058697;28;45384;-41
2022/04/24 07:27:49;;;;;;;;;31.33;26.33;;;;;21.64;38.96;99729.72;5058653;28;45372;-42
2022/04/24 07:30:15;;;;;;;;;38.00;27.00;;;;;21.93;38.96;99733.19;5058561;28;45430;-41
2022/04/24 07:32:49;;;;;;;;;29.00;26.33;;;;;22.01;38.46;99726.56;5058432;28;46346;-42
2022/04/24 07:35:19;;;;;;;;;39.33;28.00;;;;;21.74;38.77;99732.59;5058383;28;45415;-42
2022/04/24 07:37:45;;;;;;;;;35.67;30.67;;;;;21.93;38.36;99738.63;5058089;28;45229;-41
2022/04/24 07:40:16;;;;;;;;;36.00;30.33;;;;;22.10;37.86;99725.06;5058380;28;45511;-44
2022/04/24 07:42:45;;;;;;;;;34.00;29.00;;;;;22.20;37.58;99738.78;5058324;28;46222;-42
2022/04/24 07:45:18;;;;;;;;;35.67;30.00;;;;;22.28;37.64;99724.84;5058246;28;45451;-42
2022/04/24 07:47:45;;;;;;;;;33.33;29.00;;;;;22.47;37.18;99736.22;5058478;28;45182;-42
2022/04/24 07:50:11;;;;;;;;;39.33;29.67;;;;;22.61;36.58;99740.22;5058617;28;45357;-43
2022/04/24 07:52:36;;;;;;;;;26.67;26.67;;;;;22.79;36.42;99733.66;5057529;28;46134;-42
2022/04/24 07:55:02;;;;;;;;;34.00;29.00;;;;;23.07;35.90;99737.31;5056729;28;45317;-42
2022/04/24 07:57:27;;;;;;;;;37.67;31.67;;;;;23.39;36.18;99734.69;5057911;28;45498;-42
2022/04/24 07:59:52;;;;;;;;;33.33;29.00;;;;;23.67;35.50;99732.81;5057829;28;45399;-41
2022/04/24 08:02:18;;;;;;;;;32.00;28.67;;;;;23.95;34.65;99737.94;5057705;28;45416;-43
2022/04/24 08:04:43;;;;;;;;;33.00;28.67;;;;;24.27;34.56;99740.66;5057485;28;45665;-42
2022/04/24 08:07:09;;;;;;;;;36.00;32.00;;;;;24.61;34.27;99743.88;5057871;28;45301;-42
2022/04/24 08:09:35;;;;;;;;;33.00;28.67;;;;;25.32;32.98;99748.00;5057963;28;45450;-47
2022/04/24 08:12:00;;;;;;;;;39.00;33.00;;;;;26.21;32.13;99744.03;5057599;28;46082;-42
2022/04/24 08:14:26;;;;;;;;;33.75;30.25;;;;;26.90;30.65;99747.16;5057423;28;45371;-41
2022/04/24 08:16:51;;;;;;;;;33.50;31.50;;;;;28.27;28.64;99746.28;5057450;28;45245;-42
2022/04/24 08:19:16;;;;;;;;;38.67;30.33;;;;;28.11;28.39;99733.88;5057019;28;45431;-41
2022/04/24 08:21:42;;;;;;;;;33.33;32.00;;;;;27.86;29.72;99745.84;5056000;28;47834;-41
2022/04/24 08:24:07;;;;;;;;;35.33;32.33;;;;;28.04;28.78;99747.06;5057204;28;45393;-41
2022/04/24 08:26:32;;;;;;;;;36.00;32.33;;;;;27.65;29.47;99747.06;5056667;28;45343;-42
2022/04/24 08:28:58;;;;;;;;;30.50;28.00;;;;;27.18;29.02;99748.41;5057557;28;45330;-41
2022/04/24 08:31:23;;;;;;;;;36.00;30.75;;;;;28.32;29.13;99754.47;5057102;28;45316;-42
2022/04/24 08:33:50;;;;;;;;;34.25;30.50;;;;;30.05;26.05;99748.69;5057279;28;45357;-42
2022/04/24 08:36:15;;;;;;;;;37.50;31.75;;;;;31.19;24.50;99742.72;5056131;28;45421;-41
2022/04/24 08:38:41;;;;;;;;;33.50;28.00;;;;;31.97;23.73;99735.16;5057379;28;45548;-42
2022/04/24 08:41:08;;;;;;;;;34.75;30.25;;;;;32.75;23.96;99732.81;5057080;28;45419;-41
2022/04/24 08:43:34;;;;;;;;;33.75;31.00;;;;;33.14;21.77;99731.97;5057108;28;45368;-43
2022/04/24 08:46:02;;;;;;;;;38.50;31.00;;;;;32.93;24.67;99741.97;5056443;28;45432;-43
2022/04/24 08:48:28;;;;;;;;;30.50;28.25;;;;;33.36;23.74;99738.47;5057353;28;45478;-42
2022/04/24 08:50:55;;;;;;;;;40.50;30.75;;;;;33.70;22.91;99740.44;5056861;28;46901;-42
2022/04/24 08:53:21;;;;;;;;;32.40;29.80;;;;;33.01;21.26;99739.25;5057303;28;45304;-42
2022/04/24 08:55:46;;;;;;;;;31.20;28.60;;;;;33.45;22.64;99753.91;5051472;28;45492;-42
2022/04/24 08:58:12;;;;;;;;;35.00;30.50;;;;;33.98;21.01;99750.03;5051883;28;46777;-42
2022/04/24 09:00:38;;;;;;;;;30.75;28.50;;;;;33.55;21.02;99752.00;5052245;28;45563;-43
2022/04/24 09:03:04;;;;;;;;;31.50;28.50;;;;;33.90;21.54;99753.59;5053650;28;45328;-42
2022/04/24 09:05:30;;;;;;;;;30.80;28.20;;;;;34.57;20.85;99756.88;5053235;28;45515;-41
2022/04/24 09:08:09;;;;;;;;;39.75;30.25;;;;;34.29;20.86;99746.22;5054825;28;45883;-43
2022/04/24 09:10:52;;;;;;;;;29.80;27.40;;;;;33.95;20.40;99756.16;5055237;28;48846;-43
2022/04/24 09:16:18;;;;;;;;;34.60;29.80;;;;;31.54;22.09;99766.66;5054449;28;45483;-45
2022/04/24 09:18:46;;;;;;;;;35.75;27.25;;;;;30.27;23.46;99775.50;5055295;28;45514;-43
2022/04/24 09:21:13;;;;;;;;;37.25;29.75;;;;;29.19;24.28;99758.97;5054995;28;47149;-42
2022/04/24 09:23:43;;;;;;;;;29.80;29.60;;;;;28.47;25.74;99772.66;5055368;28;45424;-42
2022/04/24 09:26:16;;;;;;;;;31.50;28.25;;;;;28.03;26.35;99762.66;5055219;28;45452;-42
2022/04/24 09:28:42;;;;;;;;;32.00;28.00;;;;;27.51;26.84;99783.19;5055428;28;45273;-42
2022/04/24 09:31:08;;;;;;;;;32.75;32.00;;;;;27.05;27.74;99786.13;5055661;28;45420;-42
2022/04/24 09:33:42;;;;;;;;;34.00;30.75;;;;;26.59;28.36;99789.00;5054588;28;45900;-44
2022/04/24 09:36:09;;;;;;;;;35.00;31.25;;;;;26.13;28.53;99794.47;5053523;28;45593;-42
2022/04/24 09:38:45;;;;;;;;;32.00;31.25;;;;;25.73;29.16;99789.75;5055647;28;45495;-44
2022/04/24 09:41:21;;;;;;;;;33.50;31.75;;;;;25.67;29.48;99803.63;5054962;28;46645;-43
2022/04/24 09:43:48;;;;;;;;;31.00;25.50;;;;;25.55;29.12;99793.81;5055044;28;46221;-42
2022/04/24 09:46:26;;;;;;;;;32.50;29.50;;;;;26.09;28.95;99798.00;5054858;28;45329;-42
2022/04/24 09:48:53;;;;;;;;;30.75;27.25;;;;;26.72;27.78;99797.69;5055414;28;45388;-41
2022/04/24 09:51:20;;;;;;;;;32.00;29.50;;;;;28.08;26.51;99787.19;5054395;28;45920;-45
2022/04/24 09:53:47;;;;;;;;;32.75;28.50;;;;;29.12;25.68;99793.31;5053293;28;45642;-42
2022/04/24 09:56:14;;;;;;;;;28.75;26.25;;;;;30.85;23.84;99795.34;5054760;28;45475;-42
2022/04/24 09:58:41;;;;;;;;;32.75;27.50;;;;;32.27;22.74;99791.34;5054862;28;45485;-43
2022/04/24 10:01:08;;;;;;;;;26.50;24.50;;;;;33.26;20.89;99783.72;5055112;28;46299;-43
2022/04/24 10:03:37;;;;;;;;;24.00;23.20;;;;;34.07;20.18;99785.88;5054735;28;45420;-44
2022/04/24 10:06:04;;;;;;;;;28.40;27.60;;;;;34.77;19.25;99791.25;5055341;28;45441;-43
2022/04/24 10:08:34;;;;;;;;;30.40;26.40;;;;;35.42;19.21;99796.25;5055147;28;45264;-42
2022/04/24 10:11:04;;;;;;;;;29.00;28.20;;;;;36.10;18.70;99798.84;5054365;28;46247;-43
2022/04/24 10:13:31;;;;;;;;;26.20;24.20;;;;;36.59;18.50;99792.66;5054891;28;45406;-43
2022/04/24 10:16:06;;;;;;;;;28.20;26.60;;;;;36.99;18.21;99800.31;5054601;28;45419;-42
2022/04/24 10:18:50;;;;;;;;;33.00;28.00;;;;;36.84;18.47;99805.38;5057944;28;45380;-43
2022/04/24 10:21:41;;;;;;;;;29.40;26.40;;;;;35.76;18.97;99808.25;5058177;28;46196;-41
2022/04/24 10:24:11;;;;;;;;;29.40;25.60;;;;;36.04;18.69;99811.28;5058271;28;45483;-42
2022/04/24 10:26:37;;;;;;;;;27.40;24.00;;;;;36.57;18.56;99819.88;5058260;28;45462;-42
2022/04/24 10:29:09;;;;;;;;;25.75;24.25;;;;;36.87;17.86;99809.41;5057682;28;45569;-41
2022/04/24 10:31:42;;;;;;;;;25.80;23.20;;;;;37.45;18.12;99821.22;5058209;28;45388;-43
2022/04/24 10:34:07;;;;;;;;;26.80;24.60;;;;;37.98;17.27;99819.25;5058365;28;45194;-42
2022/04/24 10:36:33;;;;;;;;;29.50;28.50;;;;;38.31;17.13;99824.53;5057595;28;45356;-42
2022/04/24 10:39:01;;;;;;;;;30.00;26.00;;;;;38.15;17.59;99823.69;5058434;28;45493;-41
2022/04/24 10:41:31;;;;;;;;;26.40;23.40;;;;;38.01;17.23;99831.59;5056477;28;45506;-41
2022/04/24 10:44:08;;;;;;;;;28.00;24.40;;;;;37.72;17.50;99833.53;5057695;28;45397;-48
2022/04/24 10:46:39;;;;;;;;;29.80;27.80;;;;;37.62;18.38;99817.38;5058080;28;45481;-42
2022/04/24 10:49:12;;;;;;;;;29.40;26.20;;;;;37.27;17.85;99839.25;5058367;28;45522;-41
2022/04/24 10:51:40;;;;;;;;;33.20;29.00;;;;;36.95;17.95;99839.81;5057418;28;46376;-41
2022/04/24 10:54:08;;;;;;;;;26.20;24.00;;;;;37.65;17.38;99839.69;5057503;28;45497;-45
2022/04/24 10:56:36;;;;;;;;;22.40;18.80;;;;;38.35;16.42;99841.34;5058165;28;45526;-41
2022/04/24 10:59:08;;;;;;;;;26.00;25.00;;;;;38.44;17.30;99842.78;5057177;28;45458;-41
2022/04/24 11:01:38;;;;;;;;;30.00;26.60;;;;;37.23;18.18;99847.47;5057472;28;46081;-45
2022/04/24 11:04:06;;;;;;;;;27.40;26.60;;;;;35.52;19.01;99846.81;5057953;28;45502;-41
2022/04/24 11:06:31;;;;;;;;;30.00;27.60;;;;;34.22;20.19;99853.59;5057598;28;45849;-42
2022/04/24 11:09:09;;;;;;;;;28.25;25.00;;;;;33.21;21.39;99842.56;5059670;28;45416;-43
2022/04/24 11:11:51;;;;;;;;;25.80;25.80;;;;;31.99;22.01;99849.25;5058879;28;47067;-42
2022/04/24 11:14:22;;;;;;;;;28.60;24.60;;;;;31.12;22.60;99855.75;5058883;28;45393;-42
2022/04/24 11:16:58;;;;;;;;;25.80;23.00;;;;;30.53;22.93;99869.16;5058702;28;45328;-40
2022/04/24 11:19:28;;;;;;;;;29.60;25.80;;;;;29.95;23.50;99861.28;5053103;28;45435;-42